WetterOnline ( https://www.wetteronline.ch )

Wetter aktuell Wismar

Aktuelles Wetter: Pelzerhaken/Neustadt i.H. (2m)

6-stündlich | Neueste Meldungen
Ortszeit Temperatur Wetter
Fr, 14.08. 14:00 21.3° C wolkig
Fr, 14.08. 8:00 18.9° C wolkig
Fr, 14.08. 2:00 19.8° C wolkig
Do, 13.08. 20:00 20.6° C wolkenlos
Do, 13.08. 14:00 22.4° C wolkenlos
Do, 13.08. 8:00 19.5° C wolkenlos
Do, 13.08. 2:00 19.3° C wolkenlos
Mi, 12.08. 20:00 21.6° C wolkenlos
Ortszeit Temperatur Wetter
Fr, 14.08. 16:00 22.4° C wolkenlos
Fr, 14.08. 15:50 22.4° C wolkenlos
Fr, 14.08. 15:40 22.3° C wolkenlos
Fr, 14.08. 15:30 22.2° C leicht bewölkt
Fr, 14.08. 15:20 22.2° C leicht bewölkt
Fr, 14.08. 15:10 22.3° C leicht bewölkt
Fr, 14.08. 15:00 21.5° C bewölkt
Fr, 14.08. 14:30 21.5° C leicht bewölkt
Fr, 14.08. 14:00 21.3° C wolkig
Fr, 14.08. 13:30 20.9° C leicht bewölkt
Fr, 14.08. 13:00 21.3° C fast wolkenlos
Ortszeit Relative Feuchte Sichtweite
Fr, 14.08. 14:00 81% 30 km
Fr, 14.08. 8:00 89% 40 km
Fr, 14.08. 2:00 69% 45 km
Do, 13.08. 20:00 77% 40 km
Do, 13.08. 14:00 76% 55 km
Do, 13.08. 8:00 81% 55 km
Do, 13.08. 2:00 79% 50 km
Mi, 12.08. 20:00 78% 40 km
Ortszeit Relative Feuchte Sichtweite
Fr, 14.08. 16:00 79% 35 km
Fr, 14.08. 15:50 79% -
Fr, 14.08. 15:40 80% -
Fr, 14.08. 15:30 78% 35 km
Fr, 14.08. 15:20 78% -
Fr, 14.08. 15:10 80% -
Fr, 14.08. 15:00 82% 35 km
Fr, 14.08. 14:30 82% 45 km
Fr, 14.08. 14:00 81% 30 km
Fr, 14.08. 13:30 82% 35 km
Fr, 14.08. 13:00 82% 30 km
Ortszeit Niederschlagsmenge Niederschlagsart
Fr, 14.08. 14:00 0.0 l/m2 in 6 Std. -
Fr, 14.08. 8:00 0.0 l/m2 in 12 Std. -
Fr, 14.08. 2:00 0.0 l/m2 in 6 Std. -
Do, 13.08. 20:00 0.0 l/m2 in 12 Std. -
Do, 13.08. 14:00 0.0 l/m2 in 6 Std. -
Do, 13.08. 8:00 0.0 l/m2 in 12 Std. -
Do, 13.08. 2:00 0.0 l/m2 in 6 Std. -
Mi, 12.08. 20:00 0.0 l/m2 in 12 Std. -
Ortszeit Niederschlagsmenge Niederschlagsart
Fr, 14.08. 16:00 0.0 l/m2 in 1 Std. -
Fr, 14.08. 15:50 keine Meldung -
Fr, 14.08. 15:40 keine Meldung -
Fr, 14.08. 15:30 0.0 l/m2 in 1 Std. -
Fr, 14.08. 15:20 keine Meldung -
Fr, 14.08. 15:10 keine Meldung -
Fr, 14.08. 15:00 0.0 l/m2 in 1 Std. -
Fr, 14.08. 14:30 0.0 l/m2 in 1 Std. -
Fr, 14.08. 14:00 0.0 l/m2 in 1 Std. -
Fr, 14.08. 13:30 0.0 l/m2 in 1 Std. -
Fr, 14.08. 13:00 0.0 l/m2 in 1 Std. -
Ortszeit Stärke Spitze Richtung
km/h Bft. km/h Grad Sektor
Fr, 14.08. 14:00 17 3 33 60° NO
Fr, 14.08. 8:00 18 3 36 60° NO
Fr, 14.08. 2:00 14 3 43 60° NO
Do, 13.08. 20:00 24 4 44 50° NO
Do, 13.08. 14:00 25 4 40 50° NO
Do, 13.08. 8:00 15 3 28 60° NO
Do, 13.08. 2:00 18 3 36 70° O
Mi, 12.08. 20:00 24 4 41 40° NO
Ortszeit Stärke Spitze Richtung
km/h Bft. km/h Grad Sektor
Fr, 14.08. 16:00 18 3 25 70° O
Fr, 14.08. 15:50 18 3 - 70° O
Fr, 14.08. 15:40 18 3 - 70° O
Fr, 14.08. 15:30 17 3 22 60° NO
Fr, 14.08. 15:20 17 3 - 60° NO
Fr, 14.08. 15:10 14 3 - 60° NO
Fr, 14.08. 15:00 14 3 25 50° NO
Fr, 14.08. 14:30 17 3 24 60° NO
Fr, 14.08. 14:00 17 3 26 60° NO
Fr, 14.08. 13:30 20 4 26 70° O
Fr, 14.08. 13:00 20 4 28 70° O
Ortszeit Untergrenze Bedeckung Gattung
total tief tief mittel hoch
Fr, 14.08. 14:00 8100 m 8/8 0/8 - - -
Fr, 14.08. 8:00 240 m 7/8 3/8 - - -
Fr, 14.08. 2:00 9000 m 8/8 0/8 - - -
Do, 13.08. 20:00 - 0/8 0/8 - - -
Do, 13.08. 14:00 - 0/8 0/8 - - -
Do, 13.08. 8:00 - 0/8 0/8 - - -
Do, 13.08. 2:00 10500 m 0/8 0/8 - - -
Mi, 12.08. 20:00 - 0/8 0/8 - - -
Ortszeit Bedeckungsgrad in Achtel und Wolkenuntergrenze
Fr, 14.08. 16:00 keine Wolken
Fr, 14.08. 15:50 keine Wolken
Fr, 14.08. 15:40 keine Wolken
Fr, 14.08. 15:30 1(2400m)
Fr, 14.08. 15:20 1(2400m) 2(10500m)
Fr, 14.08. 15:10 2(2400m) 3(10500m)
Fr, 14.08. 15:00 7(2400m) 6(10500m)
Fr, 14.08. 14:30 3(2400m) 5(8100m)
Fr, 14.08. 14:00 8(8100m)
Fr, 14.08. 13:30 4(8700m) 4(9000m)
Fr, 14.08. 13:00 2(9000m)
Ortszeit Luftdruck NN (hPa) Tendenz (hPa in 3 Std.)
Fr, 14.08. 14:00 1014 - 0,2
Fr, 14.08. 8:00 1014 + 0,5
Fr, 14.08. 2:00 1015 - 0,3
Do, 13.08. 20:00 1014 - 1,0
Do, 13.08. 14:00 1016 - 0,4
Do, 13.08. 8:00 1017 - 0,2
Do, 13.08. 2:00 1018 - 0,1
Mi, 12.08. 20:00 1018 - 0,8
Ortszeit Luftdruck NN (hPa) Tendenz (hPa in 3 Std.)
Fr, 14.08. 16:00 1013 - 0,9
Fr, 14.08. 15:50 1013 keine Meldung
Fr, 14.08. 15:40 1013 keine Meldung
Fr, 14.08. 15:30 1013 - 0,7
Fr, 14.08. 15:20 1013 keine Meldung
Fr, 14.08. 15:10 1013 keine Meldung
Fr, 14.08. 15:00 1013 - 0,5
Fr, 14.08. 14:30 1014 - 0,3
Fr, 14.08. 14:00 1014 - 0,2
Fr, 14.08. 13:30 1014 0,0
Fr, 14.08. 13:00 1014 + 0,1
Ortszeit Schneehöhe (cm)
Fr, 14.08. 14:00 0
Fr, 14.08. 8:00 0
Fr, 14.08. 2:00 0
Do, 13.08. 20:00 0
Do, 13.08. 14:00 0
Do, 13.08. 8:00 0
Do, 13.08. 2:00 0
Mi, 12.08. 20:00 0
Ortszeit Schneehöhe (cm)
Fr, 14.08. 16:00 0
Fr, 14.08. 15:50 0
Fr, 14.08. 15:40 0
Fr, 14.08. 15:30 0
Fr, 14.08. 15:20 0
Fr, 14.08. 15:10 0
Fr, 14.08. 15:00 0
Fr, 14.08. 14:30 0
Fr, 14.08. 14:00 0
Fr, 14.08. 13:30 0
Fr, 14.08. 13:00 0
Link zu dieser Seite / Seite empfehlen

Das Wetter in ...